sensor_id;sensor_type;location;lat;lon;timestamp;P1;durP1;ratioP1;P2;durP2;ratioP2
4810;SDS011;2419;51.276;6.472;2023-06-10T00:01:10;5.17;;;4.30;;
4810;SDS011;2419;51.276;6.472;2023-06-10T00:03:38;5.87;;;4.80;;
4810;SDS011;2419;51.276;6.472;2023-06-10T00:06:07;5.07;;;3.90;;
4810;SDS011;2419;51.276;6.472;2023-06-10T00:08:35;9.97;;;4.93;;
4810;SDS011;2419;51.276;6.472;2023-06-10T00:11:03;4.80;;;4.30;;
4810;SDS011;2419;51.276;6.472;2023-06-10T00:13:33;8.87;;;4.70;;
4810;SDS011;2419;51.276;6.472;2023-06-10T00:16:02;7.83;;;4.33;;
4810;SDS011;2419;51.276;6.472;2023-06-10T00:18:30;9.60;;;4.67;;
4810;SDS011;2419;51.276;6.472;2023-06-10T00:20:58;5.57;;;4.37;;
4810;SDS011;2419;51.276;6.472;2023-06-10T00:23:30;6.23;;;4.37;;
4810;SDS011;2419;51.276;6.472;2023-06-10T00:26:04;7.63;;;5.00;;
4810;SDS011;2419;51.276;6.472;2023-06-10T00:28:33;6.50;;;4.63;;
4810;SDS011;2419;51.276;6.472;2023-06-10T00:31:02;7.73;;;5.00;;
4810;SDS011;2419;51.276;6.472;2023-06-10T00:33:31;5.10;;;4.60;;
4810;SDS011;2419;51.276;6.472;2023-06-10T00:35:59;9.60;;;5.30;;
4810;SDS011;2419;51.276;6.472;2023-06-10T00:38:27;9.83;;;4.77;;
4810;SDS011;2419;51.276;6.472;2023-06-10T00:40:55;5.60;;;4.30;;
4810;SDS011;2419;51.276;6.472;2023-06-10T00:43:23;8.50;;;5.07;;
4810;SDS011;2419;51.276;6.472;2023-06-10T00:45:53;6.07;;;4.83;;
4810;SDS011;2419;51.276;6.472;2023-06-10T00:48:21;10.70;;;4.77;;
4810;SDS011;2419;51.276;6.472;2023-06-10T00:50:50;5.50;;;4.50;;
4810;SDS011;2419;51.276;6.472;2023-06-10T00:53:18;5.97;;;4.57;;
4810;SDS011;2419;51.276;6.472;2023-06-10T00:55:47;6.40;;;4.67;;
4810;SDS011;2419;51.276;6.472;2023-06-10T00:58:15;5.40;;;4.70;;
4810;SDS011;2419;51.276;6.472;2023-06-10T01:00:43;6.63;;;4.90;;
4810;SDS011;2419;51.276;6.472;2023-06-10T01:03:14;6.53;;;4.93;;
4810;SDS011;2419;51.276;6.472;2023-06-10T01:05:44;8.23;;;4.60;;
4810;SDS011;2419;51.276;6.472;2023-06-10T01:08:18;10.20;;;5.00;;
4810;SDS011;2419;51.276;6.472;2023-06-10T01:10:57;6.87;;;4.50;;
4810;SDS011;2419;51.276;6.472;2023-06-10T01:13:27;4.90;;;4.40;;
4810;SDS011;2419;51.276;6.472;2023-06-10T01:15:58;6.83;;;4.63;;
4810;SDS011;2419;51.276;6.472;2023-06-10T01:18:30;7.00;;;4.33;;
4810;SDS011;2419;51.276;6.472;2023-06-10T01:20:59;8.30;;;5.80;;
4810;SDS011;2419;51.276;6.472;2023-06-10T01:23:28;5.30;;;4.80;;
4810;SDS011;2419;51.276;6.472;2023-06-10T01:25:57;5.53;;;4.93;;
4810;SDS011;2419;51.276;6.472;2023-06-10T01:28:31;6.50;;;4.90;;
4810;SDS011;2419;51.276;6.472;2023-06-10T01:31:05;6.23;;;4.60;;
4810;SDS011;2419;51.276;6.472;2023-06-10T01:33:43;6.43;;;5.10;;
4810;SDS011;2419;51.276;6.472;2023-06-10T01:36:13;6.63;;;4.57;;
4810;SDS011;2419;51.276;6.472;2023-06-10T01:38:45;9.60;;;5.33;;
4810;SDS011;2419;51.276;6.472;2023-06-10T01:41:16;8.13;;;5.40;;
4810;SDS011;2419;51.276;6.472;2023-06-10T01:43:45;6.97;;;5.20;;
4810;SDS011;2419;51.276;6.472;2023-06-10T01:46:13;8.00;;;5.00;;
4810;SDS011;2419;51.276;6.472;2023-06-10T01:48:46;7.00;;;5.17;;
4810;SDS011;2419;51.276;6.472;2023-06-10T01:51:14;5.90;;;4.60;;
4810;SDS011;2419;51.276;6.472;2023-06-10T01:53:42;6.50;;;4.57;;
4810;SDS011;2419;51.276;6.472;2023-06-10T01:56:12;6.67;;;5.27;;
4810;SDS011;2419;51.276;6.472;2023-06-10T01:58:44;6.80;;;5.13;;
4810;SDS011;2419;51.276;6.472;2023-06-10T02:01:13;6.17;;;4.83;;
4810;SDS011;2419;51.276;6.472;2023-06-10T02:03:41;5.73;;;5.13;;
4810;SDS011;2419;51.276;6.472;2023-06-10T02:06:09;12.33;;;5.30;;
4810;SDS011;2419;51.276;6.472;2023-06-10T02:08:37;6.10;;;4.90;;
4810;SDS011;2419;51.276;6.472;2023-06-10T02:11:07;6.03;;;4.47;;
4810;SDS011;2419;51.276;6.472;2023-06-10T02:13:35;11.10;;;5.27;;
4810;SDS011;2419;51.276;6.472;2023-06-10T02:16:03;5.97;;;4.83;;
4810;SDS011;2419;51.276;6.472;2023-06-10T02:18:32;8.53;;;5.40;;
4810;SDS011;2419;51.276;6.472;2023-06-10T02:21:01;6.43;;;5.03;;
4810;SDS011;2419;51.276;6.472;2023-06-10T02:23:29;5.80;;;5.00;;
4810;SDS011;2419;51.276;6.472;2023-06-10T02:25:57;6.73;;;5.60;;
4810;SDS011;2419;51.276;6.472;2023-06-10T02:28:26;6.53;;;5.40;;
4810;SDS011;2419;51.276;6.472;2023-06-10T02:30:56;7.67;;;5.60;;
4810;SDS011;2419;51.276;6.472;2023-06-10T02:33:25;6.63;;;4.93;;
4810;SDS011;2419;51.276;6.472;2023-06-10T02:35:54;9.93;;;5.60;;
4810;SDS011;2419;51.276;6.472;2023-06-10T02:38:24;7.33;;;5.70;;
4810;SDS011;2419;51.276;6.472;2023-06-10T02:40:53;8.53;;;5.73;;
4810;SDS011;2419;51.276;6.472;2023-06-10T02:43:22;7.43;;;5.40;;
4810;SDS011;2419;51.276;6.472;2023-06-10T02:45:52;8.07;;;5.90;;
4810;SDS011;2419;51.276;6.472;2023-06-10T02:48:20;11.43;;;4.80;;
4810;SDS011;2419;51.276;6.472;2023-06-10T02:50:48;6.67;;;4.90;;
4810;SDS011;2419;51.276;6.472;2023-06-10T02:53:23;8.10;;;4.70;;
4810;SDS011;2419;51.276;6.472;2023-06-10T02:55:57;8.53;;;5.73;;
4810;SDS011;2419;51.276;6.472;2023-06-10T02:58:26;11.83;;;5.67;;
4810;SDS011;2419;51.276;6.472;2023-06-10T03:00:56;6.20;;;4.83;;
4810;SDS011;2419;51.276;6.472;2023-06-10T03:03:26;8.37;;;5.80;;
4810;SDS011;2419;51.276;6.472;2023-06-10T03:06:01;12.40;;;7.10;;
4810;SDS011;2419;51.276;6.472;2023-06-10T03:08:30;10.10;;;6.43;;
4810;SDS011;2419;51.276;6.472;2023-06-10T03:11:03;7.07;;;6.17;;
4810;SDS011;2419;51.276;6.472;2023-06-10T03:13:33;7.90;;;5.40;;
4810;SDS011;2419;51.276;6.472;2023-06-10T03:16:03;5.97;;;4.60;;
4810;SDS011;2419;51.276;6.472;2023-06-10T03:18:35;7.80;;;5.57;;
4810;SDS011;2419;51.276;6.472;2023-06-10T03:21:04;8.80;;;6.20;;
4810;SDS011;2419;51.276;6.472;2023-06-10T03:23:32;10.10;;;6.47;;
4810;SDS011;2419;51.276;6.472;2023-06-10T03:26:01;9.10;;;5.97;;
4810;SDS011;2419;51.276;6.472;2023-06-10T03:28:32;7.27;;;5.43;;
4810;SDS011;2419;51.276;6.472;2023-06-10T03:31:01;9.30;;;5.73;;
4810;SDS011;2419;51.276;6.472;2023-06-10T03:33:32;6.40;;;5.53;;
4810;SDS011;2419;51.276;6.472;2023-06-10T03:36:00;9.10;;;5.73;;
4810;SDS011;2419;51.276;6.472;2023-06-10T03:38:29;7.77;;;5.53;;
4810;SDS011;2419;51.276;6.472;2023-06-10T03:40:57;9.10;;;6.37;;
4810;SDS011;2419;51.276;6.472;2023-06-10T03:43:26;7.30;;;5.97;;
4810;SDS011;2419;51.276;6.472;2023-06-10T03:45:54;8.70;;;5.33;;
4810;SDS011;2419;51.276;6.472;2023-06-10T03:48:22;10.80;;;5.80;;
4810;SDS011;2419;51.276;6.472;2023-06-10T03:50:53;9.30;;;6.10;;
4810;SDS011;2419;51.276;6.472;2023-06-10T03:53:21;8.17;;;5.13;;
4810;SDS011;2419;51.276;6.472;2023-06-10T03:55:50;9.27;;;5.57;;
4810;SDS011;2419;51.276;6.472;2023-06-10T03:58:21;8.57;;;5.70;;
4810;SDS011;2419;51.276;6.472;2023-06-10T04:00:49;8.07;;;5.90;;
4810;SDS011;2419;51.276;6.472;2023-06-10T04:03:25;7.87;;;5.17;;
4810;SDS011;2419;51.276;6.472;2023-06-10T04:05:55;7.03;;;5.53;;
4810;SDS011;2419;51.276;6.472;2023-06-10T04:08:25;6.50;;;5.07;;
4810;SDS011;2419;51.276;6.472;2023-06-10T04:10:53;9.60;;;6.30;;
4810;SDS011;2419;51.276;6.472;2023-06-10T04:13:21;8.60;;;5.70;;
4810;SDS011;2419;51.276;6.472;2023-06-10T04:15:53;7.93;;;5.50;;
4810;SDS011;2419;51.276;6.472;2023-06-10T04:18:21;8.60;;;5.57;;
4810;SDS011;2419;51.276;6.472;2023-06-10T04:20:54;7.37;;;5.33;;
4810;SDS011;2419;51.276;6.472;2023-06-10T04:23:23;6.97;;;4.97;;
4810;SDS011;2419;51.276;6.472;2023-06-10T04:25:52;7.07;;;5.83;;
4810;SDS011;2419;51.276;6.472;2023-06-10T04:28:20;5.53;;;4.87;;
4810;SDS011;2419;51.276;6.472;2023-06-10T04:30:48;7.63;;;5.70;;
4810;SDS011;2419;51.276;6.472;2023-06-10T04:33:16;6.37;;;5.37;;
4810;SDS011;2419;51.276;6.472;2023-06-10T04:35:45;10.07;;;5.90;;
4810;SDS011;2419;51.276;6.472;2023-06-10T04:38:15;8.50;;;5.93;;
4810;SDS011;2419;51.276;6.472;2023-06-10T04:40:43;8.13;;;6.10;;
4810;SDS011;2419;51.276;6.472;2023-06-10T04:43:14;6.37;;;5.20;;
4810;SDS011;2419;51.276;6.472;2023-06-10T04:45:44;14.30;;;5.70;;
4810;SDS011;2419;51.276;6.472;2023-06-10T04:48:12;10.00;;;6.17;;
4810;SDS011;2419;51.276;6.472;2023-06-10T04:50:40;7.27;;;6.07;;
4810;SDS011;2419;51.276;6.472;2023-06-10T04:53:09;9.30;;;6.20;;
4810;SDS011;2419;51.276;6.472;2023-06-10T04:55:41;10.50;;;6.67;;
4810;SDS011;2419;51.276;6.472;2023-06-10T04:58:10;9.13;;;6.53;;
4810;SDS011;2419;51.276;6.472;2023-06-10T05:00:38;9.10;;;5.90;;
4810;SDS011;2419;51.276;6.472;2023-06-10T05:03:06;8.03;;;5.67;;
4810;SDS011;2419;51.276;6.472;2023-06-10T05:05:34;10.23;;;6.37;;
4810;SDS011;2419;51.276;6.472;2023-06-10T05:08:02;6.70;;;5.90;;
4810;SDS011;2419;51.276;6.472;2023-06-10T05:10:33;11.60;;;5.47;;
4810;SDS011;2419;51.276;6.472;2023-06-10T05:13:03;8.00;;;6.10;;
4810;SDS011;2419;51.276;6.472;2023-06-10T05:15:31;9.10;;;6.37;;
4810;SDS011;2419;51.276;6.472;2023-06-10T05:17:59;10.03;;;5.40;;
4810;SDS011;2419;51.276;6.472;2023-06-10T05:20:29;7.00;;;5.70;;
4810;SDS011;2419;51.276;6.472;2023-06-10T05:22:57;8.90;;;5.30;;
4810;SDS011;2419;51.276;6.472;2023-06-10T05:25:25;7.47;;;5.30;;
4810;SDS011;2419;51.276;6.472;2023-06-10T05:27:53;6.77;;;5.20;;
4810;SDS011;2419;51.276;6.472;2023-06-10T05:30:23;11.00;;;5.33;;
4810;SDS011;2419;51.276;6.472;2023-06-10T05:32:52;9.80;;;5.10;;
4810;SDS011;2419;51.276;6.472;2023-06-10T05:35:20;10.57;;;6.13;;
4810;SDS011;2419;51.276;6.472;2023-06-10T05:37:48;8.07;;;5.90;;
4810;SDS011;2419;51.276;6.472;2023-06-10T05:40:16;7.53;;;5.50;;
4810;SDS011;2419;51.276;6.472;2023-06-10T05:42:44;9.63;;;5.60;;
4810;SDS011;2419;51.276;6.472;2023-06-10T05:45:12;7.53;;;5.20;;
4810;SDS011;2419;51.276;6.472;2023-06-10T05:47:42;7.87;;;5.60;;
4810;SDS011;2419;51.276;6.472;2023-06-10T05:50:10;9.93;;;5.47;;
4810;SDS011;2419;51.276;6.472;2023-06-10T05:52:38;7.20;;;5.40;;
4810;SDS011;2419;51.276;6.472;2023-06-10T05:55:07;5.90;;;5.00;;
4810;SDS011;2419;51.276;6.472;2023-06-10T05:57:37;7.57;;;4.90;;
4810;SDS011;2419;51.276;6.472;2023-06-10T06:00:05;6.80;;;5.40;;
4810;SDS011;2419;51.276;6.472;2023-06-10T06:02:41;6.07;;;4.93;;
4810;SDS011;2419;51.276;6.472;2023-06-10T06:05:09;6.47;;;5.27;;
4810;SDS011;2419;51.276;6.472;2023-06-10T06:07:38;7.37;;;5.43;;
4810;SDS011;2419;51.276;6.472;2023-06-10T06:10:07;8.40;;;5.10;;
4810;SDS011;2419;51.276;6.472;2023-06-10T06:12:35;8.20;;;5.67;;
4810;SDS011;2419;51.276;6.472;2023-06-10T06:15:03;6.03;;;4.90;;
4810;SDS011;2419;51.276;6.472;2023-06-10T06:17:32;7.10;;;5.03;;
4810;SDS011;2419;51.276;6.472;2023-06-10T06:20:01;6.93;;;5.37;;
4810;SDS011;2419;51.276;6.472;2023-06-10T06:22:30;8.27;;;5.60;;
4810;SDS011;2419;51.276;6.472;2023-06-10T06:24:58;7.47;;;5.00;;
4810;SDS011;2419;51.276;6.472;2023-06-10T06:27:26;7.93;;;5.53;;
4810;SDS011;2419;51.276;6.472;2023-06-10T06:29:54;8.17;;;5.90;;
4810;SDS011;2419;51.276;6.472;2023-06-10T06:32:22;7.83;;;4.87;;
4810;SDS011;2419;51.276;6.472;2023-06-10T06:34:53;7.30;;;4.53;;
4810;SDS011;2419;51.276;6.472;2023-06-10T06:37:23;5.93;;;5.13;;
4810;SDS011;2419;51.276;6.472;2023-06-10T06:40:06;7.00;;;5.40;;
4810;SDS011;2419;51.276;6.472;2023-06-10T06:42:35;5.80;;;5.07;;
4810;SDS011;2419;51.276;6.472;2023-06-10T06:45:12;7.67;;;4.67;;
4810;SDS011;2419;51.276;6.472;2023-06-10T06:47:41;6.53;;;4.53;;
4810;SDS011;2419;51.276;6.472;2023-06-10T06:50:09;8.07;;;4.47;;
4810;SDS011;2419;51.276;6.472;2023-06-10T06:52:39;5.50;;;4.57;;
4810;SDS011;2419;51.276;6.472;2023-06-10T06:55:07;5.60;;;4.80;;
4810;SDS011;2419;51.276;6.472;2023-06-10T06:57:36;7.10;;;4.63;;
4810;SDS011;2419;51.276;6.472;2023-06-10T07:00:05;8.23;;;4.70;;
4810;SDS011;2419;51.276;6.472;2023-06-10T07:02:34;6.10;;;4.30;;
4810;SDS011;2419;51.276;6.472;2023-06-10T07:05:02;6.27;;;4.60;;
4810;SDS011;2419;51.276;6.472;2023-06-10T07:07:32;6.80;;;5.00;;
4810;SDS011;2419;51.276;6.472;2023-06-10T07:10:02;6.53;;;4.63;;
4810;SDS011;2419;51.276;6.472;2023-06-10T07:12:31;7.07;;;4.70;;
4810;SDS011;2419;51.276;6.472;2023-06-10T07:14:59;6.17;;;4.17;;
4810;SDS011;2419;51.276;6.472;2023-06-10T07:17:27;6.53;;;4.53;;
4810;SDS011;2419;51.276;6.472;2023-06-10T07:19:55;6.23;;;4.10;;
4810;SDS011;2419;51.276;6.472;2023-06-10T07:22:24;6.03;;;4.93;;
4810;SDS011;2419;51.276;6.472;2023-06-10T07:24:52;7.70;;;5.20;;
4810;SDS011;2419;51.276;6.472;2023-06-10T07:27:23;6.60;;;4.20;;
4810;SDS011;2419;51.276;6.472;2023-06-10T07:29:51;6.67;;;4.57;;
4810;SDS011;2419;51.276;6.472;2023-06-10T07:32:19;6.87;;;5.17;;
4810;SDS011;2419;51.276;6.472;2023-06-10T07:34:50;7.10;;;4.80;;
4810;SDS011;2419;51.276;6.472;2023-06-10T07:37:18;8.17;;;5.20;;
4810;SDS011;2419;51.276;6.472;2023-06-10T07:39:46;13.83;;;5.00;;
4810;SDS011;2419;51.276;6.472;2023-06-10T07:42:14;6.77;;;4.80;;
4810;SDS011;2419;51.276;6.472;2023-06-10T07:44:44;9.20;;;5.00;;
4810;SDS011;2419;51.276;6.472;2023-06-10T07:47:12;7.43;;;4.70;;
4810;SDS011;2419;51.276;6.472;2023-06-10T07:49:40;5.67;;;4.20;;
4810;SDS011;2419;51.276;6.472;2023-06-10T07:52:08;5.47;;;3.90;;
4810;SDS011;2419;51.276;6.472;2023-06-10T07:54:36;8.43;;;5.03;;
4810;SDS011;2419;51.276;6.472;2023-06-10T07:57:04;5.37;;;4.40;;
4810;SDS011;2419;51.276;6.472;2023-06-10T07:59:34;5.00;;;3.80;;
4810;SDS011;2419;51.276;6.472;2023-06-10T08:02:03;8.37;;;3.87;;
4810;SDS011;2419;51.276;6.472;2023-06-10T08:04:32;7.40;;;3.93;;
4810;SDS011;2419;51.276;6.472;2023-06-10T08:07:01;5.63;;;4.40;;
4810;SDS011;2419;51.276;6.472;2023-06-10T08:09:30;4.27;;;3.70;;
4810;SDS011;2419;51.276;6.472;2023-06-10T08:11:58;4.73;;;3.83;;
4810;SDS011;2419;51.276;6.472;2023-06-10T08:14:26;4.67;;;4.23;;
4810;SDS011;2419;51.276;6.472;2023-06-10T08:16:54;6.63;;;4.27;;
4810;SDS011;2419;51.276;6.472;2023-06-10T08:19:23;8.37;;;4.63;;
4810;SDS011;2419;51.276;6.472;2023-06-10T08:21:51;6.53;;;3.90;;
4810;SDS011;2419;51.276;6.472;2023-06-10T08:24:19;6.00;;;4.00;;
4810;SDS011;2419;51.276;6.472;2023-06-10T08:26:47;5.40;;;4.20;;
4810;SDS011;2419;51.276;6.472;2023-06-10T08:29:15;5.30;;;4.70;;
4810;SDS011;2419;51.276;6.472;2023-06-10T08:31:44;7.23;;;5.77;;
4810;SDS011;2419;51.276;6.472;2023-06-10T08:34:12;4.50;;;3.90;;
4810;SDS011;2419;51.276;6.472;2023-06-10T08:36:42;5.13;;;4.63;;
4810;SDS011;2419;51.276;6.472;2023-06-10T08:39:11;5.87;;;4.23;;
4810;SDS011;2419;51.276;6.472;2023-06-10T08:41:41;7.20;;;4.60;;
4810;SDS011;2419;51.276;6.472;2023-06-10T08:44:12;4.67;;;4.20;;
4810;SDS011;2419;51.276;6.472;2023-06-10T08:46:45;5.27;;;3.90;;
4810;SDS011;2419;51.276;6.472;2023-06-10T08:49:14;5.60;;;3.97;;
4810;SDS011;2419;51.276;6.472;2023-06-10T08:51:49;8.53;;;4.40;;
4810;SDS011;2419;51.276;6.472;2023-06-10T08:54:20;12.80;;;5.57;;
4810;SDS011;2419;51.276;6.472;2023-06-10T08:56:51;5.30;;;4.57;;
4810;SDS011;2419;51.276;6.472;2023-06-10T08:59:23;10.00;;;4.90;;
4810;SDS011;2419;51.276;6.472;2023-06-10T09:01:52;5.60;;;4.33;;
4810;SDS011;2419;51.276;6.472;2023-06-10T09:04:21;6.23;;;4.33;;
4810;SDS011;2419;51.276;6.472;2023-06-10T09:06:53;7.20;;;5.27;;
4810;SDS011;2419;51.276;6.472;2023-06-10T09:09:22;6.97;;;4.80;;
4810;SDS011;2419;51.276;6.472;2023-06-10T09:11:50;7.20;;;4.80;;
4810;SDS011;2419;51.276;6.472;2023-06-10T09:14:18;5.43;;;4.47;;
4810;SDS011;2419;51.276;6.472;2023-06-10T09:16:46;9.37;;;4.87;;
4810;SDS011;2419;51.276;6.472;2023-06-10T09:19:16;5.10;;;4.60;;
4810;SDS011;2419;51.276;6.472;2023-06-10T09:21:44;8.03;;;4.37;;
4810;SDS011;2419;51.276;6.472;2023-06-10T09:24:14;5.83;;;4.53;;
4810;SDS011;2419;51.276;6.472;2023-06-10T09:26:43;5.13;;;4.47;;
4810;SDS011;2419;51.276;6.472;2023-06-10T09:29:12;5.67;;;5.03;;
4810;SDS011;2419;51.276;6.472;2023-06-10T09:31:40;8.10;;;4.50;;
4810;SDS011;2419;51.276;6.472;2023-06-10T09:34:09;6.63;;;5.10;;
4810;SDS011;2419;51.276;6.472;2023-06-10T09:36:38;7.03;;;4.57;;
4810;SDS011;2419;51.276;6.472;2023-06-10T09:39:14;10.03;;;4.77;;
4810;SDS011;2419;51.276;6.472;2023-06-10T09:41:44;5.87;;;4.67;;
4810;SDS011;2419;51.276;6.472;2023-06-10T09:44:13;8.80;;;5.03;;
4810;SDS011;2419;51.276;6.472;2023-06-10T09:46:42;7.17;;;4.80;;
4810;SDS011;2419;51.276;6.472;2023-06-10T09:49:13;5.60;;;4.50;;
4810;SDS011;2419;51.276;6.472;2023-06-10T09:51:48;5.70;;;5.07;;
4810;SDS011;2419;51.276;6.472;2023-06-10T09:54:19;5.40;;;4.20;;
4810;SDS011;2419;51.276;6.472;2023-06-10T09:56:49;6.90;;;5.00;;
4810;SDS011;2419;51.276;6.472;2023-06-10T09:59:27;6.83;;;5.03;;
4810;SDS011;2419;51.276;6.472;2023-06-10T10:01:57;11.40;;;5.53;;
4810;SDS011;2419;51.276;6.472;2023-06-10T10:04:27;11.93;;;4.90;;
4810;SDS011;2419;51.276;6.472;2023-06-10T10:06:55;11.00;;;5.73;;
4810;SDS011;2419;51.276;6.472;2023-06-10T10:09:27;6.03;;;5.00;;
4810;SDS011;2419;51.276;6.472;2023-06-10T10:11:55;12.30;;;5.13;;
4810;SDS011;2419;51.276;6.472;2023-06-10T10:14:25;7.67;;;5.53;;
4810;SDS011;2419;51.276;6.472;2023-06-10T10:16:55;7.87;;;5.97;;
4810;SDS011;2419;51.276;6.472;2023-06-10T10:19:27;7.17;;;5.60;;
4810;SDS011;2419;51.276;6.472;2023-06-10T10:22:00;7.80;;;5.33;;
4810;SDS011;2419;51.276;6.472;2023-06-10T10:24:33;6.67;;;5.30;;
4810;SDS011;2419;51.276;6.472;2023-06-10T10:27:04;8.20;;;5.37;;
4810;SDS011;2419;51.276;6.472;2023-06-10T10:29:40;6.60;;;4.97;;
4810;SDS011;2419;51.276;6.472;2023-06-10T10:32:13;5.43;;;4.37;;
4810;SDS011;2419;51.276;6.472;2023-06-10T10:34:45;7.57;;;5.00;;
4810;SDS011;2419;51.276;6.472;2023-06-10T10:37:20;6.23;;;4.73;;
4810;SDS011;2419;51.276;6.472;2023-06-10T10:39:50;6.17;;;5.00;;
4810;SDS011;2419;51.276;6.472;2023-06-10T10:42:20;8.17;;;4.57;;
4810;SDS011;2419;51.276;6.472;2023-06-10T10:44:49;10.10;;;5.17;;
4810;SDS011;2419;51.276;6.472;2023-06-10T10:47:18;8.20;;;4.90;;
4810;SDS011;2419;51.276;6.472;2023-06-10T10:49:50;8.90;;;5.17;;
4810;SDS011;2419;51.276;6.472;2023-06-10T10:52:19;6.50;;;4.33;;
4810;SDS011;2419;51.276;6.472;2023-06-10T10:54:49;4.63;;;4.00;;
4810;SDS011;2419;51.276;6.472;2023-06-10T10:57:21;4.33;;;3.90;;
4810;SDS011;2419;51.276;6.472;2023-06-10T10:59:52;5.50;;;4.40;;
4810;SDS011;2419;51.276;6.472;2023-06-10T11:02:33;5.53;;;5.03;;
4810;SDS011;2419;51.276;6.472;2023-06-10T11:05:05;5.30;;;4.10;;
4810;SDS011;2419;51.276;6.472;2023-06-10T11:07:35;4.73;;;4.23;;
4810;SDS011;2419;51.276;6.472;2023-06-10T11:10:07;6.60;;;4.50;;
4810;SDS011;2419;51.276;6.472;2023-06-10T11:12:50;6.60;;;4.50;;
4810;SDS011;2419;51.276;6.472;2023-06-10T11:15:20;5.00;;;4.00;;
4810;SDS011;2419;51.276;6.472;2023-06-10T11:18:06;6.63;;;5.40;;
4810;SDS011;2419;51.276;6.472;2023-06-10T11:20:50;5.40;;;4.90;;
4810;SDS011;2419;51.276;6.472;2023-06-10T11:23:25;4.53;;;4.13;;
4810;SDS011;2419;51.276;6.472;2023-06-10T11:26:20;12.73;;;4.50;;
4810;SDS011;2419;51.276;6.472;2023-06-10T11:29:05;4.63;;;4.17;;
4810;SDS011;2419;51.276;6.472;2023-06-10T11:31:39;4.30;;;3.90;;
4810;SDS011;2419;51.276;6.472;2023-06-10T11:34:09;4.20;;;3.80;;
4810;SDS011;2419;51.276;6.472;2023-06-10T11:36:38;6.70;;;4.63;;
4810;SDS011;2419;51.276;6.472;2023-06-10T11:39:09;5.57;;;4.27;;
4810;SDS011;2419;51.276;6.472;2023-06-10T11:41:39;9.90;;;4.57;;
4810;SDS011;2419;51.276;6.472;2023-06-10T11:44:08;5.57;;;4.30;;
4810;SDS011;2419;51.276;6.472;2023-06-10T11:46:37;4.50;;;3.87;;
4810;SDS011;2419;51.276;6.472;2023-06-10T11:49:07;4.70;;;4.07;;
4810;SDS011;2419;51.276;6.472;2023-06-10T11:51:36;5.90;;;5.10;;
4810;SDS011;2419;51.276;6.472;2023-06-10T11:54:08;5.30;;;3.90;;
4810;SDS011;2419;51.276;6.472;2023-06-10T11:56:38;4.50;;;4.10;;
4810;SDS011;2419;51.276;6.472;2023-06-10T11:59:06;5.00;;;4.50;;
4810;SDS011;2419;51.276;6.472;2023-06-10T12:01:35;6.20;;;4.27;;
4810;SDS011;2419;51.276;6.472;2023-06-10T12:04:09;4.90;;;3.93;;
4810;SDS011;2419;51.276;6.472;2023-06-10T12:06:40;6.17;;;4.37;;
4810;SDS011;2419;51.276;6.472;2023-06-10T12:09:13;6.27;;;4.60;;
4810;SDS011;2419;51.276;6.472;2023-06-10T12:11:54;5.00;;;4.37;;
4810;SDS011;2419;51.276;6.472;2023-06-10T12:17:17;10.83;;;5.23;;
4810;SDS011;2419;51.276;6.472;2023-06-10T12:19:45;4.50;;;4.00;;
4810;SDS011;2419;51.276;6.472;2023-06-10T12:22:14;4.90;;;4.17;;
4810;SDS011;2419;51.276;6.472;2023-06-10T12:24:45;7.13;;;4.77;;
4810;SDS011;2419;51.276;6.472;2023-06-10T12:27:27;5.57;;;4.60;;
4810;SDS011;2419;51.276;6.472;2023-06-10T12:29:56;4.83;;;3.90;;
4810;SDS011;2419;51.276;6.472;2023-06-10T12:32:37;4.50;;;4.10;;
4810;SDS011;2419;51.276;6.472;2023-06-10T12:35:09;4.43;;;4.03;;
4810;SDS011;2419;51.276;6.472;2023-06-10T12:37:39;6.13;;;4.63;;
4810;SDS011;2419;51.276;6.472;2023-06-10T12:40:09;5.67;;;4.23;;
4810;SDS011;2419;51.276;6.472;2023-06-10T12:42:40;4.03;;;3.70;;
4810;SDS011;2419;51.276;6.472;2023-06-10T12:45:08;4.83;;;4.17;;
4810;SDS011;2419;51.276;6.472;2023-06-10T12:47:38;4.80;;;4.30;;
4810;SDS011;2419;51.276;6.472;2023-06-10T12:50:08;7.30;;;4.87;;
4810;SDS011;2419;51.276;6.472;2023-06-10T12:52:39;7.20;;;4.60;;
4810;SDS011;2419;51.276;6.472;2023-06-10T12:55:09;4.67;;;4.20;;
4810;SDS011;2419;51.276;6.472;2023-06-10T12:57:37;5.13;;;4.60;;
4810;SDS011;2419;51.276;6.472;2023-06-10T13:00:17;5.53;;;4.27;;
4810;SDS011;2419;51.276;6.472;2023-06-10T13:02:46;5.47;;;4.90;;
4810;SDS011;2419;51.276;6.472;2023-06-10T13:05:16;10.53;;;4.90;;
4810;SDS011;2419;51.276;6.472;2023-06-10T13:07:44;5.27;;;4.33;;
4810;SDS011;2419;51.276;6.472;2023-06-10T13:10:13;4.77;;;4.10;;
4810;SDS011;2419;51.276;6.472;2023-06-10T13:12:42;7.90;;;5.00;;
4810;SDS011;2419;51.276;6.472;2023-06-10T13:15:15;4.83;;;4.27;;
4810;SDS011;2419;51.276;6.472;2023-06-10T13:17:44;4.73;;;4.20;;
4810;SDS011;2419;51.276;6.472;2023-06-10T13:20:15;8.20;;;4.60;;
4810;SDS011;2419;51.276;6.472;2023-06-10T13:22:44;7.63;;;5.00;;
4810;SDS011;2419;51.276;6.472;2023-06-10T13:25:13;5.63;;;3.97;;
4810;SDS011;2419;51.276;6.472;2023-06-10T13:27:42;7.03;;;4.70;;
4810;SDS011;2419;51.276;6.472;2023-06-10T13:30:10;4.97;;;4.47;;
4810;SDS011;2419;51.276;6.472;2023-06-10T13:32:40;4.83;;;4.33;;
4810;SDS011;2419;51.276;6.472;2023-06-10T13:35:08;6.07;;;4.27;;
4810;SDS011;2419;51.276;6.472;2023-06-10T13:37:37;7.93;;;4.50;;
4810;SDS011;2419;51.276;6.472;2023-06-10T13:40:05;5.40;;;4.40;;
4810;SDS011;2419;51.276;6.472;2023-06-10T13:42:35;4.40;;;4.00;;
4810;SDS011;2419;51.276;6.472;2023-06-10T13:45:04;10.67;;;4.57;;
4810;SDS011;2419;51.276;6.472;2023-06-10T13:47:33;4.70;;;4.20;;
4810;SDS011;2419;51.276;6.472;2023-06-10T13:50:03;6.13;;;4.57;;
4810;SDS011;2419;51.276;6.472;2023-06-10T13:52:31;5.97;;;4.57;;
4810;SDS011;2419;51.276;6.472;2023-06-10T13:55:00;4.47;;;4.07;;
4810;SDS011;2419;51.276;6.472;2023-06-10T13:57:28;5.03;;;4.37;;
4810;SDS011;2419;51.276;6.472;2023-06-10T13:59:56;4.70;;;4.30;;
4810;SDS011;2419;51.276;6.472;2023-06-10T14:02:24;7.63;;;4.20;;
4810;SDS011;2419;51.276;6.472;2023-06-10T14:04:52;6.60;;;4.63;;
4810;SDS011;2419;51.276;6.472;2023-06-10T14:07:22;5.90;;;4.57;;
4810;SDS011;2419;51.276;6.472;2023-06-10T14:09:50;5.60;;;4.40;;
4810;SDS011;2419;51.276;6.472;2023-06-10T14:12:18;6.23;;;4.77;;
4810;SDS011;2419;51.276;6.472;2023-06-10T14:14:46;6.00;;;4.63;;
4810;SDS011;2419;51.276;6.472;2023-06-10T14:17:14;7.07;;;4.47;;
4810;SDS011;2419;51.276;6.472;2023-06-10T14:19:42;5.60;;;4.50;;
4810;SDS011;2419;51.276;6.472;2023-06-10T14:22:13;6.67;;;4.70;;
4810;SDS011;2419;51.276;6.472;2023-06-10T14:24:42;5.60;;;3.67;;
4810;SDS011;2419;51.276;6.472;2023-06-10T14:27:10;5.40;;;4.90;;
4810;SDS011;2419;51.276;6.472;2023-06-10T14:29:38;5.97;;;4.30;;
4810;SDS011;2419;51.276;6.472;2023-06-10T14:32:07;6.10;;;4.97;;
4810;SDS011;2419;51.276;6.472;2023-06-10T14:34:35;5.57;;;4.93;;
4810;SDS011;2419;51.276;6.472;2023-06-10T14:37:05;7.47;;;4.90;;
4810;SDS011;2419;51.276;6.472;2023-06-10T14:39:34;5.50;;;5.00;;
4810;SDS011;2419;51.276;6.472;2023-06-10T14:42:04;5.57;;;4.13;;
4810;SDS011;2419;51.276;6.472;2023-06-10T14:44:32;5.93;;;4.70;;
4810;SDS011;2419;51.276;6.472;2023-06-10T14:47:00;8.03;;;4.57;;
4810;SDS011;2419;51.276;6.472;2023-06-10T14:49:29;5.77;;;4.70;;
4810;SDS011;2419;51.276;6.472;2023-06-10T14:51:57;5.83;;;4.70;;
4810;SDS011;2419;51.276;6.472;2023-06-10T14:54:25;5.83;;;4.73;;
4810;SDS011;2419;51.276;6.472;2023-06-10T14:56:54;5.20;;;4.70;;
4810;SDS011;2419;51.276;6.472;2023-06-10T14:59:23;8.73;;;4.73;;
4810;SDS011;2419;51.276;6.472;2023-06-10T15:01:51;4.90;;;4.40;;
4810;SDS011;2419;51.276;6.472;2023-06-10T15:04:19;5.37;;;4.07;;
4810;SDS011;2419;51.276;6.472;2023-06-10T15:06:49;5.67;;;4.27;;
4810;SDS011;2419;51.276;6.472;2023-06-10T15:09:18;7.30;;;4.90;;
4810;SDS011;2419;51.276;6.472;2023-06-10T15:11:46;5.90;;;4.63;;
4810;SDS011;2419;51.276;6.472;2023-06-10T15:14:14;6.83;;;5.13;;
4810;SDS011;2419;51.276;6.472;2023-06-10T15:16:44;6.50;;;5.47;;
4810;SDS011;2419;51.276;6.472;2023-06-10T15:19:12;7.80;;;5.23;;
4810;SDS011;2419;51.276;6.472;2023-06-10T15:21:40;5.87;;;5.33;;
4810;SDS011;2419;51.276;6.472;2023-06-10T15:24:08;5.20;;;4.70;;
4810;SDS011;2419;51.276;6.472;2023-06-10T15:26:36;8.93;;;5.00;;
4810;SDS011;2419;51.276;6.472;2023-06-10T15:29:04;6.57;;;5.40;;
4810;SDS011;2419;51.276;6.472;2023-06-10T15:31:33;6.37;;;5.10;;
4810;SDS011;2419;51.276;6.472;2023-06-10T15:34:03;7.57;;;5.27;;